sensor_id;sensor_type;location;lat;lon;timestamp;temperature;humidity
54516;DHT22;40422;45.892;4.738;2023-03-31T03:01:03;14.20;99.90
54516;DHT22;40422;45.892;4.738;2023-03-31T03:03:41;14.20;99.90
54516;DHT22;40422;45.892;4.738;2023-03-31T03:06:17;14.20;99.90
54516;DHT22;40422;45.892;4.738;2023-03-31T03:09:04;14.20;99.90
54516;DHT22;40422;45.892;4.738;2023-03-31T03:14:33;14.20;99.90
54516;DHT22;40422;45.892;4.738;2023-03-31T03:17:10;14.10;99.90
54516;DHT22;40422;45.892;4.738;2023-03-31T03:19:36;14.10;99.90
54516;DHT22;40422;45.892;4.738;2023-03-31T03:22:02;14.10;99.90
54516;DHT22;40422;45.892;4.738;2023-03-31T03:24:28;14.10;99.90
54516;DHT22;40422;45.892;4.738;2023-03-31T03:26:54;14.10;99.90
54516;DHT22;40422;45.892;4.738;2023-03-31T03:29:20;14.20;99.90
54516;DHT22;40422;45.892;4.738;2023-03-31T03:31:45;14.20;99.90
54516;DHT22;40422;45.892;4.738;2023-03-31T03:34:11;14.30;99.90
54516;DHT22;40422;45.892;4.738;2023-03-31T03:36:38;14.20;99.90
54516;DHT22;40422;45.892;4.738;2023-03-31T03:39:05;14.30;99.90
54516;DHT22;40422;45.892;4.738;2023-03-31T03:41:31;14.30;99.90
54516;DHT22;40422;45.892;4.738;2023-03-31T03:43:58;14.30;99.90
54516;DHT22;40422;45.892;4.738;2023-03-31T03:46:24;14.30;99.90
54516;DHT22;40422;45.892;4.738;2023-03-31T03:48:50;14.40;99.90
54516;DHT22;40422;45.892;4.738;2023-03-31T03:51:16;14.40;99.90
54516;DHT22;40422;45.892;4.738;2023-03-31T03:53:41;14.40;99.90
54516;DHT22;40422;45.892;4.738;2023-03-31T03:56:07;14.40;99.90
54516;DHT22;40422;45.892;4.738;2023-03-31T03:58:33;14.40;99.90
54516;DHT22;40422;45.892;4.738;2023-03-31T04:00:58;14.50;99.90
54516;DHT22;40422;45.892;4.738;2023-03-31T04:03:24;14.50;99.90
54516;DHT22;40422;45.892;4.738;2023-03-31T04:05:50;14.50;99.90
54516;DHT22;40422;45.892;4.738;2023-03-31T04:08:17;14.50;99.90
54516;DHT22;40422;45.892;4.738;2023-03-31T04:10:44;14.40;99.90
54516;DHT22;40422;45.892;4.738;2023-03-31T04:13:10;14.40;99.90
54516;DHT22;40422;45.892;4.738;2023-03-31T04:15:36;14.40;99.90
54516;DHT22;40422;45.892;4.738;2023-03-31T04:18:02;14.40;99.90
54516;DHT22;40422;45.892;4.738;2023-03-31T04:20:28;14.40;99.90
54516;DHT22;40422;45.892;4.738;2023-03-31T04:22:55;14.40;99.90
54516;DHT22;40422;45.892;4.738;2023-03-31T04:25:21;14.40;99.90
54516;DHT22;40422;45.892;4.738;2023-03-31T04:27:49;14.50;99.90
54516;DHT22;40422;45.892;4.738;2023-03-31T04:30:21;14.50;99.90
54516;DHT22;40422;45.892;4.738;2023-03-31T04:32:53;14.50;99.90
54516;DHT22;40422;45.892;4.738;2023-03-31T04:35:22;14.50;99.90
54516;DHT22;40422;45.892;4.738;2023-03-31T04:37:49;14.60;99.90
54516;DHT22;40422;45.892;4.738;2023-03-31T04:40:15;14.60;99.90
54516;DHT22;40422;45.892;4.738;2023-03-31T04:42:42;14.60;99.90
54516;DHT22;40422;45.892;4.738;2023-03-31T04:45:10;14.60;99.90
54516;DHT22;40422;45.892;4.738;2023-03-31T04:47:36;14.60;99.90
54516;DHT22;40422;45.892;4.738;2023-03-31T04:50:02;14.50;99.90
54516;DHT22;40422;45.892;4.738;2023-03-31T04:52:27;14.50;99.90
54516;DHT22;40422;45.892;4.738;2023-03-31T04:54:53;14.50;99.90
54516;DHT22;40422;45.892;4.738;2023-03-31T04:57:19;14.50;99.90
54516;DHT22;40422;45.892;4.738;2023-03-31T04:59:44;14.50;99.90
54516;DHT22;40422;45.892;4.738;2023-03-31T05:02:10;14.50;99.90
54516;DHT22;40422;45.892;4.738;2023-03-31T05:04:36;14.50;99.90
54516;DHT22;40422;45.892;4.738;2023-03-31T05:07:02;14.50;99.90
54516;DHT22;40422;45.892;4.738;2023-03-31T05:09:27;14.50;99.90
54516;DHT22;40422;45.892;4.738;2023-03-31T05:11:53;14.50;99.90
54516;DHT22;40422;45.892;4.738;2023-03-31T05:14:19;14.50;99.90
54516;DHT22;40422;45.892;4.738;2023-03-31T05:16:45;14.50;99.90
54516;DHT22;40422;45.892;4.738;2023-03-31T05:19:11;14.50;99.90
54516;DHT22;40422;45.892;4.738;2023-03-31T05:21:36;14.50;99.90
54516;DHT22;40422;45.892;4.738;2023-03-31T05:24:02;14.40;99.90
54516;DHT22;40422;45.892;4.738;2023-03-31T05:26:29;14.40;99.90
54516;DHT22;40422;45.892;4.738;2023-03-31T05:28:55;14.40;99.90
54516;DHT22;40422;45.892;4.738;2023-03-31T05:31:21;14.40;99.90
54516;DHT22;40422;45.892;4.738;2023-03-31T05:33:46;14.40;99.90
54516;DHT22;40422;45.892;4.738;2023-03-31T05:36:14;14.40;99.90
54516;DHT22;40422;45.892;4.738;2023-03-31T05:38:41;14.40;99.90
54516;DHT22;40422;45.892;4.738;2023-03-31T05:41:07;14.40;99.90
54516;DHT22;40422;45.892;4.738;2023-03-31T05:43:34;14.40;99.90
54516;DHT22;40422;45.892;4.738;2023-03-31T05:46:00;14.40;99.90
54516;DHT22;40422;45.892;4.738;2023-03-31T05:48:26;14.40;99.90
54516;DHT22;40422;45.892;4.738;2023-03-31T05:50:56;14.40;99.90
54516;DHT22;40422;45.892;4.738;2023-03-31T05:53:23;14.40;99.90
54516;DHT22;40422;45.892;4.738;2023-03-31T05:55:49;14.40;99.90
54516;DHT22;40422;45.892;4.738;2023-03-31T05:58:14;14.40;99.90
54516;DHT22;40422;45.892;4.738;2023-03-31T06:00:40;14.40;99.90
54516;DHT22;40422;45.892;4.738;2023-03-31T06:03:08;14.40;99.90
54516;DHT22;40422;45.892;4.738;2023-03-31T06:05:34;14.40;99.90
54516;DHT22;40422;45.892;4.738;2023-03-31T06:08:00;14.40;99.90
54516;DHT22;40422;45.892;4.738;2023-03-31T06:10:25;14.60;99.90
54516;DHT22;40422;45.892;4.738;2023-03-31T06:12:51;15.00;99.90
54516;DHT22;40422;45.892;4.738;2023-03-31T06:15:17;15.10;99.90
54516;DHT22;40422;45.892;4.738;2023-03-31T06:17:42;15.20;99.90
54516;DHT22;40422;45.892;4.738;2023-03-31T06:20:08;15.20;99.90
54516;DHT22;40422;45.892;4.738;2023-03-31T06:22:34;15.30;99.90
54516;DHT22;40422;45.892;4.738;2023-03-31T06:25:00;15.30;99.90
54516;DHT22;40422;45.892;4.738;2023-03-31T06:27:25;15.50;99.90
54516;DHT22;40422;45.892;4.738;2023-03-31T06:29:51;15.70;99.90
54516;DHT22;40422;45.892;4.738;2023-03-31T06:32:16;15.80;99.90
54516;DHT22;40422;45.892;4.738;2023-03-31T06:34:42;15.70;99.90
54516;DHT22;40422;45.892;4.738;2023-03-31T06:37:08;15.70;99.90
54516;DHT22;40422;45.892;4.738;2023-03-31T06:39:34;15.70;99.90
54516;DHT22;40422;45.892;4.738;2023-03-31T06:41:59;15.60;99.90
54516;DHT22;40422;45.892;4.738;2023-03-31T06:44:25;15.60;99.90
54516;DHT22;40422;45.892;4.738;2023-03-31T06:46:50;15.50;99.90
54516;DHT22;40422;45.892;4.738;2023-03-31T06:49:16;15.50;99.90
54516;DHT22;40422;45.892;4.738;2023-03-31T06:51:42;15.60;99.90
54516;DHT22;40422;45.892;4.738;2023-03-31T06:54:07;15.60;99.90
54516;DHT22;40422;45.892;4.738;2023-03-31T06:56:33;15.60;99.90
54516;DHT22;40422;45.892;4.738;2023-03-31T06:58:59;15.60;99.90
54516;DHT22;40422;45.892;4.738;2023-03-31T07:01:24;15.70;99.90
54516;DHT22;40422;45.892;4.738;2023-03-31T07:03:50;15.70;99.90
54516;DHT22;40422;45.892;4.738;2023-03-31T07:06:16;15.80;99.90
54516;DHT22;40422;45.892;4.738;2023-03-31T07:08:41;15.90;99.90
54516;DHT22;40422;45.892;4.738;2023-03-31T07:11:07;16.00;99.90
54516;DHT22;40422;45.892;4.738;2023-03-31T07:13:33;16.10;99.90
54516;DHT22;40422;45.892;4.738;2023-03-31T07:16:00;16.20;99.90
54516;DHT22;40422;45.892;4.738;2023-03-31T07:18:25;16.30;99.90
54516;DHT22;40422;45.892;4.738;2023-03-31T07:20:57;16.50;98.30
54516;DHT22;40422;45.892;4.738;2023-03-31T07:23:23;16.70;95.20
54516;DHT22;40422;45.892;4.738;2023-03-31T07:25:49;16.80;92.60
54516;DHT22;40422;45.892;4.738;2023-03-31T07:28:15;16.90;92.50
54516;DHT22;40422;45.892;4.738;2023-03-31T07:30:41;17.00;91.50
54516;DHT22;40422;45.892;4.738;2023-03-31T07:33:06;17.10;91.90
54516;DHT22;40422;45.892;4.738;2023-03-31T07:35:32;17.10;91.20
54516;DHT22;40422;45.892;4.738;2023-03-31T07:37:58;17.30;91.90
54516;DHT22;40422;45.892;4.738;2023-03-31T07:40:26;17.30;91.50
54516;DHT22;40422;45.892;4.738;2023-03-31T07:42:52;17.40;92.50
54516;DHT22;40422;45.892;4.738;2023-03-31T07:45:20;17.40;92.80
54516;DHT22;40422;45.892;4.738;2023-03-31T07:47:47;17.50;93.20
54516;DHT22;40422;45.892;4.738;2023-03-31T07:50:13;17.60;92.60
54516;DHT22;40422;45.892;4.738;2023-03-31T07:52:40;17.60;92.10
54516;DHT22;40422;45.892;4.738;2023-03-31T07:55:06;17.50;92.10
54516;DHT22;40422;45.892;4.738;2023-03-31T07:57:32;17.50;91.60
54516;DHT22;40422;45.892;4.738;2023-03-31T07:59:58;17.50;91.90
54516;DHT22;40422;45.892;4.738;2023-03-31T08:02:24;17.60;92.50
54516;DHT22;40422;45.892;4.738;2023-03-31T08:04:50;17.80;92.60
54516;DHT22;40422;45.892;4.738;2023-03-31T08:07:16;18.00;91.50
54516;DHT22;40422;45.892;4.738;2023-03-31T08:09:45;18.10;91.70
54516;DHT22;40422;45.892;4.738;2023-03-31T08:12:12;18.20;92.10
54516;DHT22;40422;45.892;4.738;2023-03-31T08:14:38;18.30;87.20
54516;DHT22;40422;45.892;4.738;2023-03-31T08:17:04;18.30;82.80
54516;DHT22;40422;45.892;4.738;2023-03-31T08:19:30;18.40;80.70
54516;DHT22;40422;45.892;4.738;2023-03-31T08:21:55;18.40;78.10
54516;DHT22;40422;45.892;4.738;2023-03-31T08:24:21;18.40;77.50
54516;DHT22;40422;45.892;4.738;2023-03-31T08:26:47;18.10;76.30
54516;DHT22;40422;45.892;4.738;2023-03-31T08:29:13;18.10;76.40
54516;DHT22;40422;45.892;4.738;2023-03-31T08:31:39;18.10;77.80
54516;DHT22;40422;45.892;4.738;2023-03-31T08:34:05;18.30;77.00
54516;DHT22;40422;45.892;4.738;2023-03-31T08:36:31;18.40;78.10
54516;DHT22;40422;45.892;4.738;2023-03-31T08:38:57;18.40;79.70
54516;DHT22;40422;45.892;4.738;2023-03-31T08:41:45;18.30;76.40
54516;DHT22;40422;45.892;4.738;2023-03-31T08:46:50;18.00;78.70
54516;DHT22;40422;45.892;4.738;2023-03-31T08:49:18;18.00;78.50
54516;DHT22;40422;45.892;4.738;2023-03-31T08:51:57;17.90;78.20
54516;DHT22;40422;45.892;4.738;2023-03-31T08:54:28;17.90;79.40
54516;DHT22;40422;45.892;4.738;2023-03-31T08:56:56;17.90;79.70
54516;DHT22;40422;45.892;4.738;2023-03-31T08:59:29;17.80;79.10
54516;DHT22;40422;45.892;4.738;2023-03-31T09:07:37;18.20;80.50
54516;DHT22;40422;45.892;4.738;2023-03-31T09:10:28;18.40;77.90
54516;DHT22;40422;45.892;4.738;2023-03-31T09:13:09;18.60;78.90
54516;DHT22;40422;45.892;4.738;2023-03-31T09:16:07;18.60;76.70
54516;DHT22;40422;45.892;4.738;2023-03-31T09:18:37;18.50;77.40
54516;DHT22;40422;45.892;4.738;2023-03-31T09:26:33;18.30;76.30
54516;DHT22;40422;45.892;4.738;2023-03-31T09:29:05;18.50;77.00
54516;DHT22;40422;45.892;4.738;2023-03-31T09:31:33;18.60;78.70
54516;DHT22;40422;45.892;4.738;2023-03-31T09:34:00;18.70;76.30
54516;DHT22;40422;45.892;4.738;2023-03-31T09:36:34;18.80;77.50
54516;DHT22;40422;45.892;4.738;2023-03-31T09:38:59;19.10;76.10
54516;DHT22;40422;45.892;4.738;2023-03-31T09:41:25;19.30;76.40
54516;DHT22;40422;45.892;4.738;2023-03-31T09:43:51;19.50;75.60
54516;DHT22;40422;45.892;4.738;2023-03-31T09:46:30;19.40;73.60
54516;DHT22;40422;45.892;4.738;2023-03-31T09:49:05;19.50;77.00
54516;DHT22;40422;45.892;4.738;2023-03-31T09:51:35;19.60;72.20
54516;DHT22;40422;45.892;4.738;2023-03-31T09:57:22;19.50;72.70
54516;DHT22;40422;45.892;4.738;2023-03-31T09:59:52;19.10;72.70
54516;DHT22;40422;45.892;4.738;2023-03-31T10:04:57;19.40;74.60
54516;DHT22;40422;45.892;4.738;2023-03-31T10:07:24;19.30;73.30
54516;DHT22;40422;45.892;4.738;2023-03-31T10:09:51;19.10;73.20
54516;DHT22;40422;45.892;4.738;2023-03-31T10:12:20;19.20;73.30
54516;DHT22;40422;45.892;4.738;2023-03-31T10:14:50;19.50;72.50
54516;DHT22;40422;45.892;4.738;2023-03-31T10:17:21;19.70;74.70
54516;DHT22;40422;45.892;4.738;2023-03-31T10:19:53;20.10;73.00
54516;DHT22;40422;45.892;4.738;2023-03-31T10:24:47;20.50;69.50
54516;DHT22;40422;45.892;4.738;2023-03-31T10:27:23;20.40;69.50
54516;DHT22;40422;45.892;4.738;2023-03-31T10:29:56;20.50;70.20
54516;DHT22;40422;45.892;4.738;2023-03-31T10:32:26;20.10;69.20
54516;DHT22;40422;45.892;4.738;2023-03-31T10:34:55;19.90;69.50
54516;DHT22;40422;45.892;4.738;2023-03-31T10:37:23;19.70;68.00
54516;DHT22;40422;45.892;4.738;2023-03-31T10:40:14;19.50;69.00
54516;DHT22;40422;45.892;4.738;2023-03-31T10:42:44;19.30;68.90
54516;DHT22;40422;45.892;4.738;2023-03-31T10:45:25;19.10;69.80
54516;DHT22;40422;45.892;4.738;2023-03-31T10:47:54;18.90;71.80
54516;DHT22;40422;45.892;4.738;2023-03-31T10:50:29;19.00;70.20
54516;DHT22;40422;45.892;4.738;2023-03-31T10:53:05;18.90;69.80
54516;DHT22;40422;45.892;4.738;2023-03-31T10:55:52;19.00;69.30
54516;DHT22;40422;45.892;4.738;2023-03-31T10:58:54;19.00;69.40
54516;DHT22;40422;45.892;4.738;2023-03-31T11:01:50;18.90;68.60
54516;DHT22;40422;45.892;4.738;2023-03-31T11:09:31;19.80;68.70
54516;DHT22;40422;45.892;4.738;2023-03-31T11:15:04;20.10;66.10
54516;DHT22;40422;45.892;4.738;2023-03-31T11:20:48;20.00;65.50
54516;DHT22;40422;45.892;4.738;2023-03-31T11:31:26;19.90;67.10
54516;DHT22;40422;45.892;4.738;2023-03-31T11:36:50;20.30;64.80
54516;DHT22;40422;45.892;4.738;2023-03-31T11:41:49;20.50;65.40
54516;DHT22;40422;45.892;4.738;2023-03-31T11:44:18;20.20;64.70
54516;DHT22;40422;45.892;4.738;2023-03-31T11:46:57;19.90;65.50
54516;DHT22;40422;45.892;4.738;2023-03-31T11:49:29;19.70;65.10
54516;DHT22;40422;45.892;4.738;2023-03-31T11:52:19;20.10;67.20
54516;DHT22;40422;45.892;4.738;2023-03-31T11:54:57;19.90;66.50
54516;DHT22;40422;45.892;4.738;2023-03-31T11:57:41;19.40;67.40
54516;DHT22;40422;45.892;4.738;2023-03-31T12:00:20;19.10;67.80
54516;DHT22;40422;45.892;4.738;2023-03-31T12:03:13;19.00;68.10
54516;DHT22;40422;45.892;4.738;2023-03-31T12:05:45;19.40;69.00
54516;DHT22;40422;45.892;4.738;2023-03-31T12:08:38;19.60;69.40
54516;DHT22;40422;45.892;4.738;2023-03-31T12:11:15;19.90;70.00
54516;DHT22;40422;45.892;4.738;2023-03-31T12:16:39;20.00;70.00
54516;DHT22;40422;45.892;4.738;2023-03-31T12:19:27;19.80;67.20
54516;DHT22;40422;45.892;4.738;2023-03-31T12:22:09;19.60;67.50
54516;DHT22;40422;45.892;4.738;2023-03-31T12:24:36;19.60;68.00
54516;DHT22;40422;45.892;4.738;2023-03-31T12:27:17;19.70;67.10
54516;DHT22;40422;45.892;4.738;2023-03-31T12:32:42;19.90;71.10
54516;DHT22;40422;45.892;4.738;2023-03-31T12:35:20;20.00;68.20
54516;DHT22;40422;45.892;4.738;2023-03-31T12:40:42;19.90;68.40
54516;DHT22;40422;45.892;4.738;2023-03-31T12:43:45;19.70;66.80
54516;DHT22;40422;45.892;4.738;2023-03-31T12:46:28;19.40;68.80
54516;DHT22;40422;45.892;4.738;2023-03-31T12:52:04;18.80;66.70
54516;DHT22;40422;45.892;4.738;2023-03-31T12:57:23;19.00;69.10
54516;DHT22;40422;45.892;4.738;2023-03-31T13:02:37;19.20;69.00
54516;DHT22;40422;45.892;4.738;2023-03-31T13:08:01;19.20;70.40
54516;DHT22;40422;45.892;4.738;2023-03-31T13:10:29;19.10;69.70
54516;DHT22;40422;45.892;4.738;2023-03-31T13:13:02;19.10;71.90
54516;DHT22;40422;45.892;4.738;2023-03-31T13:15:29;19.20;70.90
54516;DHT22;40422;45.892;4.738;2023-03-31T13:18:04;19.00;68.30
54516;DHT22;40422;45.892;4.738;2023-03-31T13:20:37;18.80;69.40
54516;DHT22;40422;45.892;4.738;2023-03-31T13:23:21;18.70;70.20
54516;DHT22;40422;45.892;4.738;2023-03-31T13:25:57;18.60;70.90
54516;DHT22;40422;45.892;4.738;2023-03-31T13:28:27;18.50;69.50
54516;DHT22;40422;45.892;4.738;2023-03-31T13:31:01;18.80;69.10
54516;DHT22;40422;45.892;4.738;2023-03-31T13:44:25;18.40;68.50
54516;DHT22;40422;45.892;4.738;2023-03-31T13:55:17;18.30;70.10
54516;DHT22;40422;45.892;4.738;2023-03-31T14:05:52;18.90;72.50
54516;DHT22;40422;45.892;4.738;2023-03-31T14:08:38;19.20;74.70
54516;DHT22;40422;45.892;4.738;2023-03-31T14:11:24;19.30;72.00
54516;DHT22;40422;45.892;4.738;2023-03-31T14:16:56;18.90;70.20
54516;DHT22;40422;45.892;4.738;2023-03-31T14:22:25;18.60;69.50
54516;DHT22;40422;45.892;4.738;2023-03-31T14:28:22;19.00;68.50
54516;DHT22;40422;45.892;4.738;2023-03-31T14:37:00;18.40;71.40
54516;DHT22;40422;45.892;4.738;2023-03-31T14:39:30;18.40;70.80
54516;DHT22;40422;45.892;4.738;2023-03-31T14:42:01;18.40;71.40
54516;DHT22;40422;45.892;4.738;2023-03-31T14:44:27;18.30;70.50
54516;DHT22;40422;45.892;4.738;2023-03-31T14:46:56;18.10;72.40
54516;DHT22;40422;45.892;4.738;2023-03-31T14:49:39;18.10;70.80
54516;DHT22;40422;45.892;4.738;2023-03-31T14:52:16;18.30;72.20
54516;DHT22;40422;45.892;4.738;2023-03-31T14:54:45;18.70;70.50
54516;DHT22;40422;45.892;4.738;2023-03-31T14:57:16;18.90;70.90
54516;DHT22;40422;45.892;4.738;2023-03-31T14:59:44;19.30;73.10
54516;DHT22;40422;45.892;4.738;2023-03-31T15:02:32;19.30;68.50
54516;DHT22;40422;45.892;4.738;2023-03-31T15:05:02;19.10;68.40
54516;DHT22;40422;45.892;4.738;2023-03-31T15:07:28;18.70;69.40
54516;DHT22;40422;45.892;4.738;2023-03-31T15:09:54;18.30;68.00
54516;DHT22;40422;45.892;4.738;2023-03-31T15:12:21;18.20;71.50
54516;DHT22;40422;45.892;4.738;2023-03-31T15:14:55;18.10;70.90
54516;DHT22;40422;45.892;4.738;2023-03-31T15:17:27;17.80;71.40
54516;DHT22;40422;45.892;4.738;2023-03-31T15:19:58;17.50;73.00
54516;DHT22;40422;45.892;4.738;2023-03-31T15:22:26;17.20;72.90
54516;DHT22;40422;45.892;4.738;2023-03-31T15:24:52;17.10;73.60
54516;DHT22;40422;45.892;4.738;2023-03-31T15:27:34;16.90;73.70
54516;DHT22;40422;45.892;4.738;2023-03-31T15:30:04;16.80;76.70
54516;DHT22;40422;45.892;4.738;2023-03-31T15:32:34;15.40;83.60
54516;DHT22;40422;45.892;4.738;2023-03-31T15:35:01;13.40;94.80
54516;DHT22;40422;45.892;4.738;2023-03-31T15:37:39;12.30;98.50
54516;DHT22;40422;45.892;4.738;2023-03-31T15:40:22;12.00;98.80
54516;DHT22;40422;45.892;4.738;2023-03-31T15:42:51;11.90;99.60
54516;DHT22;40422;45.892;4.738;2023-03-31T15:45:49;11.90;99.00
54516;DHT22;40422;45.892;4.738;2023-03-31T15:51:05;12.00;98.60
54516;DHT22;40422;45.892;4.738;2023-03-31T15:53:37;12.00;99.90
54516;DHT22;40422;45.892;4.738;2023-03-31T15:56:23;12.10;99.90
54516;DHT22;40422;45.892;4.738;2023-03-31T15:58:58;12.10;99.90
54516;DHT22;40422;45.892;4.738;2023-03-31T16:01:29;12.10;99.90
54516;DHT22;40422;45.892;4.738;2023-03-31T16:03:57;12.20;99.80
54516;DHT22;40422;45.892;4.738;2023-03-31T16:06:34;12.30;99.90
54516;DHT22;40422;45.892;4.738;2023-03-31T16:09:05;12.50;99.90
54516;DHT22;40422;45.892;4.738;2023-03-31T16:11:46;12.70;99.90
54516;DHT22;40422;45.892;4.738;2023-03-31T16:14:20;13.10;99.90
54516;DHT22;40422;45.892;4.738;2023-03-31T16:16:51;13.70;98.90
54516;DHT22;40422;45.892;4.738;2023-03-31T16:19:20;14.00;99.90
54516;DHT22;40422;45.892;4.738;2023-03-31T16:21:50;14.50;97.90
54516;DHT22;40422;45.892;4.738;2023-03-31T16:24:19;14.70;96.30
54516;DHT22;40422;45.892;4.738;2023-03-31T16:26:46;14.80;97.00
54516;DHT22;40422;45.892;4.738;2023-03-31T16:29:20;14.90;96.40
54516;DHT22;40422;45.892;4.738;2023-03-31T16:31:46;14.80;97.20
54516;DHT22;40422;45.892;4.738;2023-03-31T16:34:12;14.70;97.90
54516;DHT22;40422;45.892;4.738;2023-03-31T16:36:38;14.50;97.90
54516;DHT22;40422;45.892;4.738;2023-03-31T16:39:04;14.30;98.20
54516;DHT22;40422;45.892;4.738;2023-03-31T16:41:34;14.10;98.40
54516;DHT22;40422;45.892;4.738;2023-03-31T16:44:01;14.00;99.60
54516;DHT22;40422;45.892;4.738;2023-03-31T16:46:27;13.90;98.40
54516;DHT22;40422;45.892;4.738;2023-03-31T16:48:52;13.80;99.90
54516;DHT22;40422;45.892;4.738;2023-03-31T16:51:18;13.60;99.60
54516;DHT22;40422;45.892;4.738;2023-03-31T16:53:45;13.40;99.90
54516;DHT22;40422;45.892;4.738;2023-03-31T16:56:11;12.90;99.90
54516;DHT22;40422;45.892;4.738;2023-03-31T16:58:39;12.60;99.90
54516;DHT22;40422;45.892;4.738;2023-03-31T17:01:05;12.30;99.90
54516;DHT22;40422;45.892;4.738;2023-03-31T17:03:32;11.90;99.90
54516;DHT22;40422;45.892;4.738;2023-03-31T17:06:04;11.80;99.90
54516;DHT22;40422;45.892;4.738;2023-03-31T17:08:31;11.80;99.90
54516;DHT22;40422;45.892;4.738;2023-03-31T17:11:03;11.80;99.90
54516;DHT22;40422;45.892;4.738;2023-03-31T17:13:30;11.80;99.90
54516;DHT22;40422;45.892;4.738;2023-03-31T17:15:57;11.70;99.90
54516;DHT22;40422;45.892;4.738;2023-03-31T17:18:23;11.80;99.90
54516;DHT22;40422;45.892;4.738;2023-03-31T17:20:50;11.80;99.90
54516;DHT22;40422;45.892;4.738;2023-03-31T17:23:20;11.90;99.90
54516;DHT22;40422;45.892;4.738;2023-03-31T17:25:51;11.90;99.90
54516;DHT22;40422;45.892;4.738;2023-03-31T17:28:17;12.00;99.90
54516;DHT22;40422;45.892;4.738;2023-03-31T17:30:43;12.00;99.90
54516;DHT22;40422;45.892;4.738;2023-03-31T17:33:10;12.00;99.90
54516;DHT22;40422;45.892;4.738;2023-03-31T17:35:36;12.00;99.90
54516;DHT22;40422;45.892;4.738;2023-03-31T17:38:02;12.10;99.90
54516;DHT22;40422;45.892;4.738;2023-03-31T17:40:29;12.10;99.90
54516;DHT22;40422;45.892;4.738;2023-03-31T17:42:58;12.10;99.90
54516;DHT22;40422;45.892;4.738;2023-03-31T17:45:24;12.10;99.90
54516;DHT22;40422;45.892;4.738;2023-03-31T17:47:49;12.00;99.90
54516;DHT22;40422;45.892;4.738;2023-03-31T17:50:16;12.00;99.90
54516;DHT22;40422;45.892;4.738;2023-03-31T17:52:42;12.10;99.90
54516;DHT22;40422;45.892;4.738;2023-03-31T17:55:08;12.10;99.90
54516;DHT22;40422;45.892;4.738;2023-03-31T17:57:34;12.10;99.90
54516;DHT22;40422;45.892;4.738;2023-03-31T18:00:03;12.10;99.90
54516;DHT22;40422;45.892;4.738;2023-03-31T18:02:30;12.10;99.90
54516;DHT22;40422;45.892;4.738;2023-03-31T18:04:55;12.10;99.90
54516;DHT22;40422;45.892;4.738;2023-03-31T18:07:21;12.10;99.90
54516;DHT22;40422;45.892;4.738;2023-03-31T18:09:50;12.10;99.90
54516;DHT22;40422;45.892;4.738;2023-03-31T18:12:15;12.10;99.90
54516;DHT22;40422;45.892;4.738;2023-03-31T18:14:42;12.10;99.90
54516;DHT22;40422;45.892;4.738;2023-03-31T18:17:07;12.10;99.90
54516;DHT22;40422;45.892;4.738;2023-03-31T18:19:36;12.10;99.90
54516;DHT22;40422;45.892;4.738;2023-03-31T18:22:02;12.10;99.90
54516;DHT22;40422;45.892;4.738;2023-03-31T18:24:27;12.10;99.90
54516;DHT22;40422;45.892;4.738;2023-03-31T18:26:53;12.10;99.90
54516;DHT22;40422;45.892;4.738;2023-03-31T18:29:19;12.20;99.90
54516;DHT22;40422;45.892;4.738;2023-03-31T18:31:44;12.30;99.90
54516;DHT22;40422;45.892;4.738;2023-03-31T18:34:10;12.30;99.90
54516;DHT22;40422;45.892;4.738;2023-03-31T18:36:37;12.20;99.90
54516;DHT22;40422;45.892;4.738;2023-03-31T18:39:03;12.10;99.90
54516;DHT22;40422;45.892;4.738;2023-03-31T18:41:29;12.00;99.90
54516;DHT22;40422;45.892;4.738;2023-03-31T18:43:54;11.80;99.90
54516;DHT22;40422;45.892;4.738;2023-03-31T18:46:20;11.70;99.90
54516;DHT22;40422;45.892;4.738;2023-03-31T18:48:46;11.50;99.90
54516;DHT22;40422;45.892;4.738;2023-03-31T18:51:11;11.40;99.90
54516;DHT22;40422;45.892;4.738;2023-03-31T18:53:38;11.40;99.90
54516;DHT22;40422;45.892;4.738;2023-03-31T18:56:04;11.30;99.90
54516;DHT22;40422;45.892;4.738;2023-03-31T18:58:30;11.20;99.90
54516;DHT22;40422;45.892;4.738;2023-03-31T19:00:56;11.20;99.90
54516;DHT22;40422;45.892;4.738;2023-03-31T19:03:23;11.10;99.90
54516;DHT22;40422;45.892;4.738;2023-03-31T19:05:48;11.10;99.90
54516;DHT22;40422;45.892;4.738;2023-03-31T19:08:14;11.10;99.90
54516;DHT22;40422;45.892;4.738;2023-03-31T19:10:40;11.00;99.90
54516;DHT22;40422;45.892;4.738;2023-03-31T19:13:06;11.10;99.90
54516;DHT22;40422;45.892;4.738;2023-03-31T19:15:32;11.10;99.90
54516;DHT22;40422;45.892;4.738;2023-03-31T19:17:58;11.10;99.90
54516;DHT22;40422;45.892;4.738;2023-03-31T19:20:24;11.10;99.90
54516;DHT22;40422;45.892;4.738;2023-03-31T19:22:50;11.20;99.90
54516;DHT22;40422;45.892;4.738;2023-03-31T19:25:18;11.20;99.90
54516;DHT22;40422;45.892;4.738;2023-03-31T19:27:44;11.20;99.90
54516;DHT22;40422;45.892;4.738;2023-03-31T19:30:19;11.20;99.90
54516;DHT22;40422;45.892;4.738;2023-03-31T19:32:47;11.20;99.90
54516;DHT22;40422;45.892;4.738;2023-03-31T19:35:17;11.20;99.90
54516;DHT22;40422;45.892;4.738;2023-03-31T19:37:43;11.10;99.90
54516;DHT22;40422;45.892;4.738;2023-03-31T19:40:09;11.10;99.90
54516;DHT22;40422;45.892;4.738;2023-03-31T19:42:35;11.10;99.90
54516;DHT22;40422;45.892;4.738;2023-03-31T19:45:02;11.10;99.90
54516;DHT22;40422;45.892;4.738;2023-03-31T19:47:27;11.00;99.90
54516;DHT22;40422;45.892;4.738;2023-03-31T19:49:53;11.00;99.90
54516;DHT22;40422;45.892;4.738;2023-03-31T19:52:19;11.00;99.90
54516;DHT22;40422;45.892;4.738;2023-03-31T19:54:44;11.00;99.90
54516;DHT22;40422;45.892;4.738;2023-03-31T19:57:10;10.90;99.90
54516;DHT22;40422;45.892;4.738;2023-03-31T19:59:36;10.90;99.90
